Startpagina
METAR-TAF:

METAR-TAF

Vliegvelden :

Internationale Luchthaven Antwerpen

Antwerpen, België

breedte: 51-12N, lengte: 004-28E, hoogte: 12 m

Actueel weer

Dit bericht is 26 minuten geleden gemaakt, om 05:50 UTC
Wind 9 kt uit het westzuidwesten
Temperatuur 9°C
Vochtigheid 81%
Druk 1012 hPa
Zicht 10 km of meer
Weinig wolken op 1600 ft
Gebroken wolken op 4200 ft

METAR: EBAW 070550Z 25009KT 9999 FEW016 BKN042 09/06 Q1012 NOSIG

Tijdstip: 07:16 (06:16 UTC)

Verwachting

Dit bericht is 56 minuten geleden gemaakt, om 05:20 UTC
Verwachting geldig van 07 om 06 UTC tot 07 om 15 UTC
Wind 12 kt uit het westzuidwesten
Zicht 10 km of meer
Verspreide wolken op 4000 ft

TAF: EBAW 070520Z 0706/0715 25012KT 9999 SCT040

Waarnemingen en weersverwachtingen van meer dan 4000 vliegvelden (METAR en TAF).

De beschikbare stations zijn de gele en rode punten op de kaart.

Ga met uw muis naar het station om de naam te zien.

Klik dan om waarnemingen en weersverwachtingen te zien.

kaart wijzigen: klik op de groene knoppen met een zwart kruis om in te zoomen, op de groene knop met een streepje om uit te zoomen of op de groene pijlen voor aangrenzende kaarten.


METAR-TAF: